Time;durP1;ratioP1;P1;durP2;ratioP2;P2;SDS_P1;SDS_P2;PMS_P1;PMS_P2;Temp;Humidity;BMP_temperature;BMP_pressure;BME280_temperature;BME280_humidity;BME280_pressure;Samples;Min_cycle;Max_cycle;Signal;HPM_P1;HPM_P2
2023/10/05 00:01:11;;;;;;;7.72;3.00;;;;;;;12.24;100.00;101478.78;4923544;29;20192;-47
2023/10/05 00:03:38;;;;;;;12.88;3.80;;;;;;;12.23;100.00;101485.09;4933467;29;20215;-46
2023/10/05 00:06:15;;;;;;;11.95;3.17;;;;;;;12.22;100.00;101475.28;4929127;29;20191;-45
2023/10/05 00:08:44;;;;;;;13.23;3.00;;;;;;;12.23;100.00;101471.69;4926831;29;20212;-47
2023/10/05 00:11:21;;;;;;;12.57;3.30;;;;;;;12.22;100.00;101475.28;4925164;29;20199;-47
2023/10/05 00:13:52;;;;;;;11.18;2.92;;;;;;;12.23;100.00;101460.94;4931022;29;20752;-48
2023/10/05 00:16:21;;;;;;;10.90;3.15;;;;;;;12.25;100.00;101459.06;4926829;29;20203;-48
2023/10/05 00:18:50;;;;;;;13.20;2.95;;;;;;;12.28;100.00;101454.44;4924283;29;20188;-47
2023/10/05 00:21:20;;;;;;;11.68;2.90;;;;;;;12.30;100.00;101449.03;4931489;29;20203;-46
2023/10/05 00:23:57;;;;;;;9.38;2.88;;;;;;;12.27;100.00;101451.84;4928331;29;20682;-48
2023/10/05 00:26:29;;;;;;;11.18;2.60;;;;;;;12.27;100.00;101450.00;4926864;29;20187;-47
2023/10/05 00:29:15;;;;;;;10.90;3.05;;;;;;;12.33;100.00;101446.22;4927023;29;20207;-48
2023/10/05 00:31:41;;;;;;;13.52;2.72;;;;;;;12.31;100.00;101446.28;4926900;29;20569;-48
2023/10/05 00:34:09;;;;;;;13.95;3.63;;;;;;;12.31;100.00;101443.59;4927615;29;20215;-47
2023/10/05 00:36:40;;;;;;;8.45;2.80;;;;;;;12.29;100.00;101448.16;4928730;29;20182;-46
2023/10/05 00:39:09;;;;;;;8.10;2.78;;;;;;;12.29;100.00;101442.78;4931001;29;20197;-48
2023/10/05 00:41:37;;;;;;;13.15;3.38;;;;;;;12.23;100.00;101428.69;4925735;29;20254;-45
2023/10/05 00:44:07;;;;;;;14.25;3.58;;;;;;;12.24;100.00;101439.34;4921107;29;20196;-47
2023/10/05 00:46:35;;;;;;;15.23;3.22;;;;;;;12.22;100.00;101438.53;4920011;29;20191;-47
2023/10/05 00:49:12;;;;;;;11.55;3.20;;;;;;;12.23;100.00;101424.19;4920864;29;20211;-45
2023/10/05 00:51:40;;;;;;;12.60;3.38;;;;;;;12.23;100.00;101421.50;4930726;29;20202;-47
2023/10/05 00:54:11;;;;;;;13.60;3.25;;;;;;;12.28;100.00;101414.13;4924959;29;20215;-48
2023/10/05 00:56:40;;;;;;;9.77;3.08;;;;;;;12.26;100.00;101413.31;4925576;29;20203;-48
2023/10/05 00:59:09;;;;;;;14.65;3.20;;;;;;;12.32;100.00;101402.34;4930369;29;20183;-45
2023/10/05 01:04:25;;;;;;;10.73;3.20;;;;;;;12.28;100.00;101389.09;4925793;29;20217;-47
2023/10/05 01:07:00;;;;;;;9.23;2.80;;;;;;;12.24;100.00;101393.69;4928913;29;20214;-46
2023/10/05 01:11:54;;;;;;;11.23;3.83;;;;;;;12.30;100.00;101381.84;4921199;29;20210;-48
2023/10/05 01:14:23;;;;;;;14.85;3.25;;;;;;;12.28;100.00;101378.34;4928664;29;20223;-47
2023/10/05 01:16:49;;;;;;;11.80;3.00;;;;;;;12.32;100.00;101388.03;4928314;29;20192;-46
2023/10/05 01:19:15;;;;;;;15.55;3.70;;;;;;;12.35;100.00;101377.19;4926170;29;20194;-48
2023/10/05 01:21:43;;;;;;;11.38;3.13;;;;;;;12.38;100.00;101379.78;4928063;29;20199;-48
2023/10/05 01:24:10;;;;;;;12.00;3.28;;;;;;;12.35;100.00;101374.50;4927909;29;20579;-48
2023/10/05 01:26:37;;;;;;;12.13;3.10;;;;;;;12.39;100.00;101370.75;4927749;29;20271;-47
2023/10/05 01:29:04;;;;;;;12.23;3.35;;;;;;;12.47;100.00;101373.19;4924109;29;20248;-47
2023/10/05 01:31:30;;;;;;;12.13;3.58;;;;;;;12.44;100.00;101376.84;4915512;29;20191;-48
2023/10/05 01:33:58;;;;;;;15.40;4.10;;;;;;;12.45;100.00;101375.03;4916448;29;20750;-47
2023/10/05 01:36:25;;;;;;;9.20;3.28;;;;;;;12.48;100.00;101364.16;4926795;29;20187;-45
2023/10/05 01:38:54;;;;;;;14.75;3.80;;;;;;;12.47;100.00;101357.91;4928339;29;20594;-47
2023/10/05 01:41:22;;;;;;;12.15;3.80;;;;;;;12.52;100.00;101358.59;4925287;29;20171;-47
2023/10/05 01:43:48;;;;;;;9.70;3.40;;;;;;;12.50;100.00;101349.72;4919392;29;20218;-45
2023/10/05 01:46:14;;;;;;;7.70;3.17;;;;;;;12.50;100.00;101346.16;4923465;29;20238;-48
2023/10/05 01:48:40;;;;;;;11.75;3.75;;;;;;;12.53;100.00;101351.44;4927596;29;20283;-47
2023/10/05 01:51:21;;;;;;;13.05;3.42;;;;;;;12.54;100.00;101339.75;4923175;29;20180;-47
2023/10/05 01:53:52;;;;;;;14.20;3.92;;;;;;;12.57;100.00;101347.69;4924850;29;20286;-47
2023/10/05 01:56:20;;;;;;;13.32;4.13;;;;;;;12.55;100.00;101345.06;4929610;29;20240;-47
2023/10/05 01:58:50;;;;;;;16.98;4.20;;;;;;;12.60;100.00;101349.41;4927021;29;20183;-46
2023/10/05 02:01:20;;;;;;;12.20;3.22;;;;;;;12.59;100.00;101348.50;4924526;29;20274;-46
2023/10/05 02:03:54;;;;;;;12.52;3.95;;;;;;;12.57;100.00;101356.66;4929214;29;20598;-46
2023/10/05 02:06:20;;;;;;;10.38;3.58;;;;;;;12.55;100.00;101338.78;4925153;29;20223;-47
2023/10/05 02:08:45;;;;;;;14.95;3.70;;;;;;;12.59;100.00;101340.44;4930364;29;20621;-48
2023/10/05 02:11:19;;;;;;;14.90;3.97;;;;;;;12.57;100.00;101329.75;4922450;29;20199;-46
2023/10/05 02:13:45;;;;;;;11.60;3.53;;;;;;;12.54;100.00;101319.13;4926436;29;20208;-46
2023/10/05 02:16:14;;;;;;;12.80;3.42;;;;;;;12.66;100.00;101333.00;4924101;29;20178;-47
2023/10/05 02:18:39;;;;;;;9.98;3.58;;;;;;;12.62;100.00;101329.59;4934652;29;20677;-44
2023/10/05 02:21:07;;;;;;;12.55;3.33;;;;;;;12.67;100.00;101332.09;4924437;29;20175;-48
2023/10/05 02:23:42;;;;;;;12.18;4.18;;;;;;;12.65;100.00;101324.06;4930195;29;20575;-48
2023/10/05 02:26:23;;;;;;;16.25;3.80;;;;;;;12.69;100.00;101336.47;4927730;29;20186;-48
2023/10/05 02:28:49;;;;;;;14.32;4.00;;;;;;;12.69;100.00;101330.22;4928542;29;20207;-47
2023/10/05 02:31:15;;;;;;;18.08;4.72;;;;;;;12.69;100.00;101328.41;4932466;29;20238;-47
2023/10/05 02:33:43;;;;;;;14.45;4.07;;;;;;;12.68;100.00;101332.03;4931748;29;20187;-46
2023/10/05 02:36:11;;;;;;;12.75;4.03;;;;;;;12.70;100.00;101322.09;4928377;29;20545;-47
2023/10/05 02:38:48;;;;;;;11.98;4.55;;;;;;;12.69;100.00;101331.09;4932255;29;20279;-48
2023/10/05 02:41:24;;;;;;;12.20;3.78;;;;;;;12.71;100.00;101331.91;4931282;29;20184;-48
2023/10/05 02:43:53;;;;;;;15.88;3.80;;;;;;;12.72;100.00;101325.56;4926762;29;20286;-48
2023/10/05 02:46:24;;;;;;;16.67;3.58;;;;;;;12.74;100.00;101323.72;4924596;29;20184;-48
2023/10/05 02:48:50;;;;;;;15.98;3.42;;;;;;;12.76;100.00;101323.66;4930321;29;20203;-46
2023/10/05 02:51:18;;;;;;;14.43;3.92;;;;;;;12.81;100.00;101323.47;4929792;29;20247;-49
2023/10/05 02:53:46;;;;;;;13.57;4.00;;;;;;;12.81;100.00;101315.41;4929957;29;20194;-47
2023/10/05 02:56:23;;;;;;;12.73;3.63;;;;;;;12.83;100.00;101308.16;4933381;29;20171;-48
2023/10/05 02:58:52;;;;;;;13.95;3.55;;;;;;;12.85;100.00;101306.28;4930966;29;20187;-47
2023/10/05 03:01:18;;;;;;;15.05;4.30;;;;;;;12.88;100.00;101315.13;4929865;29;20195;-48
2023/10/05 03:03:43;;;;;;;17.90;3.55;;;;;;;12.91;100.00;101303.34;4929995;29;20689;-48
2023/10/05 03:06:10;;;;;;;12.38;3.63;;;;;;;12.92;100.00;101311.38;4924464;29;20175;-48
2023/10/05 03:08:36;;;;;;;15.52;3.90;;;;;;;12.89;100.00;101300.72;4928429;29;20287;-48
2023/10/05 03:11:08;;;;;;;18.60;4.10;;;;;;;12.89;100.00;101305.22;4927735;29;20187;-48
2023/10/05 03:13:37;;;;;;;16.17;3.80;;;;;;;12.85;100.00;101309.84;4930025;29;20519;-47
2023/10/05 03:16:06;;;;;;;18.65;3.78;;;;;;;12.85;100.00;101301.78;4925871;29;20191;-48
2023/10/05 03:18:37;;;;;;;20.48;4.55;;;;;;;12.87;100.00;101312.47;4929300;29;20232;-48
2023/10/05 03:21:09;;;;;;;13.27;3.70;;;;;;;12.86;100.00;101310.75;4929170;29;20188;-47
2023/10/05 03:23:35;;;;;;;19.60;4.60;;;;;;;12.85;100.00;101325.97;4930690;29;20270;-46
2023/10/05 03:26:01;;;;;;;20.30;3.80;;;;;;;12.79;100.00;101358.50;4926797;29;20319;-44
2023/10/05 03:28:27;;;;;;;22.25;4.85;;;;;;;12.81;100.00;101363.81;4929528;29;20233;-47
2023/10/05 03:30:53;;;;;;;26.30;5.32;;;;;;;12.76;100.00;101367.53;4931522;29;20176;-46
2023/10/05 03:33:24;;;;;;;18.02;4.28;;;;;;;12.76;100.00;101367.53;4931572;29;20248;-48
2023/10/05 03:35:50;;;;;;;13.55;2.95;;;;;;;12.76;100.00;101380.13;4925887;29;20274;-47
2023/10/05 03:38:19;;;;;;;9.57;2.60;;;;;;;12.75;100.00;101384.63;4924934;29;20187;-46
2023/10/05 03:40:47;;;;;;;17.42;3.55;;;;;;;12.77;100.00;101388.13;4930189;29;20178;-47
2023/10/05 03:43:13;;;;;;;14.90;3.25;;;;;;;12.80;100.00;101383.59;4921233;29;20343;-46
2023/10/05 03:45:39;;;;;;;12.50;3.28;;;;;;;12.77;100.00;101409.66;4929518;29;20176;-49
2023/10/05 03:48:05;;;;;;;9.63;2.67;;;;;;;12.77;100.00;101388.13;4926642;29;20214;-47
2023/10/05 03:50:31;;;;;;;6.13;2.00;;;;;;;12.72;100.00;101405.38;4929979;29;20194;-46
2023/10/05 03:52:57;;;;;;;10.07;2.45;;;;;;;12.62;100.00;101410.22;4928353;29;20235;-46
2023/10/05 03:55:24;;;;;;;8.50;2.58;;;;;;;12.58;100.00;101408.59;4929715;29;20270;-47
2023/10/05 03:57:53;;;;;;;6.97;2.03;;;;;;;12.62;100.00;101420.13;4944122;29;20635;-48
2023/10/05 04:02:46;;;;;;;7.90;2.03;;;;;;;12.44;100.00;101410.91;4925295;29;20226;-47
2023/10/05 04:05:11;;;;;;;3.97;1.50;;;;;;;12.41;100.00;101416.41;4924023;29;20290;-47
2023/10/05 04:07:39;;;;;;;7.00;1.65;;;;;;;12.39;100.00;101419.13;4925460;29;20675;-46
2023/10/05 04:10:13;;;;;;;6.40;1.52;;;;;;;12.34;100.00;101411.25;4926880;29;20206;-49
2023/10/05 04:12:40;;;;;;;3.97;1.55;;;;;;;12.29;100.00;101413.22;4925032;29;20278;-46
2023/10/05 04:15:11;;;;;;;4.60;1.55;;;;;;;12.32;100.00;101406.84;4929411;29;20608;-47
2023/10/05 04:17:37;;;;;;;4.45;1.30;;;;;;;12.22;100.00;101411.66;4929683;29;20163;-48
2023/10/05 04:22:49;;;;;;;6.05;0.90;;;;;;;12.23;100.00;101423.31;4929566;29;20195;-47
2023/10/05 04:25:16;;;;;;;4.97;1.08;;;;;;;12.24;100.00;101425.91;4926812;29;20186;-48
2023/10/05 04:27:44;;;;;;;8.20;1.20;;;;;;;12.19;100.00;101433.28;4922847;29;20721;-45
2023/10/05 04:30:13;;;;;;;6.38;1.38;;;;;;;12.21;100.00;101431.41;4930333;29;20271;-46
2023/10/05 04:32:38;;;;;;;3.58;1.08;;;;;;;12.19;100.00;101424.34;4931976;29;20294;-48
2023/10/05 04:35:14;;;;;;;1.33;0.90;;;;;;;12.19;100.00;101430.59;4927272;29;20580;-47
2023/10/05 04:37:39;;;;;;;5.63;1.58;;;;;;;12.23;100.00;101423.31;4924062;29;20263;-48
2023/10/05 04:40:09;;;;;;;9.07;1.80;;;;;;;12.25;100.00;101433.06;4928704;29;20167;-47
2023/10/05 04:42:34;;;;;;;4.88;1.40;;;;;;;12.20;100.00;101442.22;4929734;29;20241;-46
2023/10/05 04:45:02;;;;;;;7.40;1.25;;;;;;;12.16;100.00;101438.78;4931249;29;20246;-48
2023/10/05 04:47:27;;;;;;;4.97;1.02;;;;;;;12.19;100.00;101445.84;4926313;29;20208;-47
2023/10/05 04:49:53;;;;;;;7.68;1.25;;;;;;;12.16;100.00;101444.16;4928318;29;20400;-47
2023/10/05 04:52:23;;;;;;;2.30;1.00;;;;;;;12.16;100.00;101445.00;4929105;29;20250;-44
2023/10/05 04:54:57;;;;;;;5.15;1.10;;;;;;;12.13;100.00;101453.19;4927608;29;20172;-46
2023/10/05 04:57:34;;;;;;;4.45;1.10;;;;;;;12.20;100.00;101444.91;4928827;29;20191;-47
2023/10/05 05:00:48;;;;;;;6.28;0.95;;;;;;;12.19;100.00;101461.97;4932690;29;20191;-46
2023/10/05 05:08:28;;;;;;;4.45;1.08;;;;;;;12.09;100.00;101458.69;4929357;29;20199;-48
2023/10/05 05:10:53;;;;;;;3.85;1.10;;;;;;;12.08;100.00;101457.81;4922085;29;20262;-48
2023/10/05 05:13:21;;;;;;;3.58;0.95;;;;;;;12.06;100.00;101440.88;4927212;29;20278;-45
2023/10/05 05:15:47;;;;;;;8.10;1.02;;;;;;;12.12;100.00;101462.16;4919425;29;20235;-47
2023/10/05 05:18:15;;;;;;;4.85;1.10;;;;;;;12.20;100.00;101469.97;4931785;29;20199;-46
2023/10/05 05:20:47;;;;;;;4.10;1.20;;;;;;;12.11;100.00;101464.91;4929449;29;20194;-47
2023/10/05 05:23:13;;;;;;;7.35;1.25;;;;;;;12.13;100.00;101466.63;4929410;29;20203;-48
2023/10/05 05:25:42;;;;;;;3.95;1.33;;;;;;;12.09;100.00;101466.75;4932279;29;20557;-47
2023/10/05 05:28:08;;;;;;;8.70;1.30;;;;;;;12.11;100.00;101478.31;4929990;29;20195;-47
2023/10/05 05:30:36;;;;;;;7.65;1.75;;;;;;;12.04;100.00;101460.69;4929667;29;20199;-47
2023/10/05 05:33:09;;;;;;;6.25;1.20;;;;;;;12.08;100.00;101473.94;4925677;29;20198;-47
2023/10/05 05:35:42;;;;;;;5.57;1.10;;;;;;;12.11;100.00;101481.00;4934563;29;20188;-47
2023/10/05 05:38:09;;;;;;;3.47;1.10;;;;;;;12.00;100.00;101469.75;4923862;29;20171;-48
2023/10/05 05:40:38;;;;;;;11.25;1.40;;;;;;;11.96;100.00;101479.75;4923805;29;20279;-47
2023/10/05 05:43:14;;;;;;;4.78;1.13;;;;;;;11.96;100.00;101474.38;4936083;29;20673;-47
2023/10/05 05:45:43;;;;;;;3.97;1.00;;;;;;;12.04;100.00;101474.97;4928057;29;20229;-48
2023/10/05 05:48:13;;;;;;;7.20;1.17;;;;;;;11.95;100.00;101484.22;4922085;29;20252;-47
2023/10/05 05:50:42;;;;;;;6.35;1.30;;;;;;;11.95;100.00;101481.53;4926726;29;20447;-48
2023/10/05 05:53:11;;;;;;;7.60;1.45;;;;;;;11.93;100.00;101485.22;4926623;29;20207;-48
2023/10/05 05:55:41;;;;;;;5.75;1.38;;;;;;;12.03;100.00;101483.97;4925211;29;20235;-47
2023/10/05 05:58:07;;;;;;;7.22;1.55;;;;;;;11.97;100.00;101486.88;4921506;29;20180;-46
2023/10/05 06:00:33;;;;;;;8.20;1.35;;;;;;;11.95;100.00;101486.91;4928859;29;20554;-46
2023/10/05 06:02:59;;;;;;;3.30;1.13;;;;;;;11.95;100.00;101492.28;4921225;29;20211;-48
2023/10/05 06:05:24;;;;;;;5.97;1.10;;;;;;;11.95;100.00;101494.09;4929202;29;20275;-47
2023/10/05 06:07:50;;;;;;;5.00;0.98;;;;;;;11.95;100.00;101489.59;4932704;29;20297;-48
2023/10/05 06:10:16;;;;;;;7.30;1.55;;;;;;;11.97;100.00;101502.97;4926455;29;20208;-46
2023/10/05 06:12:43;;;;;;;5.55;1.10;;;;;;;11.92;100.00;101515.69;4928747;29;20219;-48
2023/10/05 06:15:10;;;;;;;6.45;1.00;;;;;;;11.84;100.00;101513.22;4931493;29;20194;-47
2023/10/05 06:17:36;;;;;;;5.40;1.30;;;;;;;11.87;100.00;101518.50;4922630;29;20199;-46
2023/10/05 06:20:14;;;;;;;4.70;1.30;;;;;;;11.87;100.00;101507.75;4922488;29;20172;-48
2023/10/05 06:22:44;;;;;;;1.90;0.98;;;;;;;11.84;100.00;101520.38;4924183;29;20247;-47
2023/10/05 06:25:15;;;;;;;6.07;1.27;;;;;;;11.86;100.00;101521.22;4929222;29;20215;-46
2023/10/05 06:27:43;;;;;;;4.68;0.77;;;;;;;12.01;100.00;101525.25;4929120;29;20239;-48
2023/10/05 06:30:11;;;;;;;3.28;0.93;;;;;;;12.18;100.00;101532.72;4926016;29;20309;-47
2023/10/05 06:32:37;;;;;;;2.47;0.82;;;;;;;12.24;100.00;101537.91;4931448;29;20262;-47
2023/10/05 06:35:08;;;;;;;1.85;0.73;;;;;;;12.33;100.00;101541.16;4933489;29;20650;-47
2023/10/05 06:37:34;;;;;;;7.15;1.10;;;;;;;12.42;100.00;101547.13;4928991;29;20234;-46
2023/10/05 06:40:00;;;;;;;5.80;0.95;;;;;;;12.38;100.00;101542.81;4927737;29;20184;-48
2023/10/05 06:42:25;;;;;;;3.45;1.00;;;;;;;12.48;100.00;101547.78;4926812;29;20709;-47
2023/10/05 06:44:51;;;;;;;3.78;0.90;;;;;;;12.77;100.00;101540.53;4928575;29;20179;-46
2023/10/05 06:47:35;;;;;;;5.50;1.15;;;;;;;12.84;100.00;101543.88;4925252;29;20269;-46
2023/10/05 06:50:08;;;;;;;3.10;1.00;;;;;;;12.89;100.00;101549.97;4928247;29;20195;-48
2023/10/05 06:52:39;;;;;;;4.63;1.38;;;;;;;13.11;100.00;101541.97;4928599;29;20661;-48
2023/10/05 06:55:08;;;;;;;4.70;1.30;;;;;;;13.23;100.00;101543.31;4923784;29;20650;-47
2023/10/05 06:57:36;;;;;;;7.57;1.38;;;;;;;13.26;100.00;101543.22;4930137;29;20195;-48
2023/10/05 07:00:16;;;;;;;5.18;1.17;;;;;;;13.45;100.00;101541.63;4928257;29;20191;-47
2023/10/05 07:02:45;;;;;;;4.53;0.85;;;;;;;13.87;100.00;101538.16;4932088;29;20805;-48
2023/10/05 07:05:11;;;;;;;6.78;1.10;;;;;;;13.93;100.00;101545.13;4931646;29;20180;-48
2023/10/05 07:07:37;;;;;;;8.02;1.00;;;;;;;14.29;100.00;101542.69;4928701;29;20673;-48
2023/10/05 07:10:08;;;;;;;5.68;1.25;;;;;;;14.04;100.00;101553.63;4929864;29;20195;-45
2023/10/05 07:12:35;;;;;;;5.32;0.90;;;;;;;13.88;100.00;101552.47;4928040;29;20647;-48
2023/10/05 07:15:01;;;;;;;4.93;0.77;;;;;;;14.34;100.00;101554.16;4931804;29;20207;-46
2023/10/05 07:17:27;;;;;;;6.20;1.15;;;;;;;14.31;100.00;101542.63;4929131;29;20167;-46
2023/10/05 07:19:53;;;;;;;2.58;0.95;;;;;;;14.58;100.00;101560.38;4926029;29;20642;-47
2023/10/05 07:22:20;;;;;;;4.97;1.42;;;;;;;14.34;100.00;101559.56;4927311;29;20246;-48
2023/10/05 07:24:45;;;;;;;10.25;1.35;;;;;;;14.37;100.00;101554.03;4931306;29;20184;-48
2023/10/05 07:27:11;;;;;;;5.25;1.42;;;;;;;14.79;100.00;101563.94;4931023;29;20183;-47
2023/10/05 07:29:36;;;;;;;5.90;1.27;;;;;;;14.63;100.00;101561.03;4931221;29;20180;-47
2023/10/05 07:32:05;;;;;;;5.13;1.02;;;;;;;14.81;100.00;101567.44;4926359;29;20191;-47
2023/10/05 07:34:31;;;;;;;1.92;0.70;;;;;;;15.09;100.00;101546.44;4926523;29;20191;-44
2023/10/05 07:36:57;;;;;;;5.20;1.23;;;;;;;15.17;100.00;101555.03;4921912;29;20190;-45
2023/10/05 07:39:23;;;;;;;5.22;1.23;;;;;;;15.13;100.00;101556.13;4941027;29;20192;-47
2023/10/05 07:41:51;;;;;;;4.80;1.10;;;;;;;15.11;100.00;101560.72;4930100;29;20202;-47
2023/10/05 07:44:17;;;;;;;5.53;1.40;;;;;;;15.30;100.00;101556.22;4924367;29;20211;-46
2023/10/05 07:46:43;;;;;;;4.50;1.00;;;;;;;15.52;100.00;101561.50;4929987;29;20266;-47
2023/10/05 07:49:09;;;;;;;5.38;1.63;;;;;;;15.33;100.00;101566.91;4926774;29;20255;-45
2023/10/05 07:51:35;;;;;;;5.82;1.25;;;;;;;15.57;100.00;101577.53;4926565;29;20303;-47
2023/10/05 07:54:01;;;;;;;8.52;1.30;;;;;;;15.50;100.00;101574.19;4926291;29;20222;-47
2023/10/05 07:56:27;;;;;;;4.10;0.85;;;;;;;15.54;100.00;101577.66;4927380;29;20217;-46
2023/10/05 07:58:54;;;;;;;6.78;1.13;;;;;;;15.61;100.00;101580.00;4924287;29;20194;-47
2023/10/05 08:01:20;;;;;;;2.60;1.05;;;;;;;15.50;100.00;101576.91;4930519;29;20196;-47
2023/10/05 08:03:46;;;;;;;4.93;1.02;;;;;;;15.51;100.00;101585.91;4925840;29;20233;-47
2023/10/05 08:06:15;;;;;;;7.35;1.65;;;;;;;15.43;100.00;101588.94;4930491;29;20164;-47
2023/10/05 08:11:15;;;;;;;3.92;1.10;;;;;;;15.95;100.00;101599.16;4955791;28;20218;-49
2023/10/05 08:13:42;;;;;;;7.22;1.50;;;;;;;15.98;100.00;101599.88;4948041;28;20218;-49
2023/10/05 08:16:08;;;;;;;9.60;1.60;;;;;;;16.03;100.00;101592.41;4963914;28;20198;-50
2023/10/05 08:18:36;;;;;;;6.45;1.38;;;;;;;15.62;100.00;101581.75;4964591;28;20186;-50
2023/10/05 08:21:02;;;;;;;5.97;1.27;;;;;;;15.74;100.00;101587.53;4959902;28;20205;-48
2023/10/05 08:23:28;;;;;;;8.20;1.95;;;;;;;15.49;100.00;101595.91;4962246;28;20210;-49
2023/10/05 08:25:57;;;;;;;6.07;1.13;;;;;;;15.90;100.00;101593.97;4963701;28;20652;-48
2023/10/05 08:28:24;;;;;;;7.70;1.20;;;;;;;15.97;100.00;101595.41;4963611;28;20228;-49
2023/10/05 08:31:06;;;;;;;11.32;1.77;;;;;;;15.85;100.00;101594.19;4961875;28;20479;-48
2023/10/05 08:33:35;;;;;;;8.57;1.75;;;;;;;16.00;100.00;101605.19;4963192;28;20202;-48
2023/10/05 08:36:06;;;;;;;10.02;1.88;;;;;;;15.72;100.00;101594.84;4962682;28;20221;-48
2023/10/05 08:38:34;;;;;;;7.25;1.75;;;;;;;16.05;100.00;101595.94;4966045;28;20179;-48
2023/10/05 08:41:02;;;;;;;8.88;1.95;;;;;;;16.39;100.00;101594.25;4960940;28;20221;-48
2023/10/05 08:43:27;;;;;;;10.15;2.22;;;;;;;16.20;100.00;101604.22;4961793;28;20198;-49
2023/10/05 08:46:01;;;;;;;13.00;1.83;;;;;;;16.13;100.00;101603.66;4962390;28;20190;-48
2023/10/05 08:48:28;;;;;;;11.80;1.27;;;;;;;16.32;99.96;101606.31;4962615;28;20195;-49
2023/10/05 08:50:59;;;;;;;9.35;1.73;;;;;;;16.51;99.36;101611.69;4963896;28;20261;-49
2023/10/05 08:53:25;;;;;;;10.25;2.15;;;;;;;16.55;98.15;101621.41;4953093;28;20229;-49
2023/10/05 08:55:52;;;;;;;7.25;2.08;;;;;;;16.45;97.77;101617.41;4964978;28;20190;-48
2023/10/05 08:58:18;;;;;;;9.43;2.40;;;;;;;16.79;96.33;101627.41;4961101;28;20215;-49
2023/10/05 09:00:45;;;;;;;13.98;1.77;;;;;;;16.87;94.73;101613.47;4964299;28;20202;-48
2023/10/05 09:03:28;;;;;;;7.53;1.48;;;;;;;16.53;93.31;101622.41;4958581;28;20199;-48
2023/10/05 09:06:14;;;;;;;6.63;1.52;;;;;;;16.51;92.39;101614.41;4962072;28;20190;-49
2023/10/05 09:11:31;;;;;;;10.98;1.67;;;;;;;15.62;92.13;101640.28;4961122;28;20917;-48
2023/10/05 09:16:45;;;;;;;7.20;2.15;;;;;;;15.39;93.50;101663.84;4964866;28;20210;-48
2023/10/05 09:19:24;;;;;;;13.20;2.15;;;;;;;16.04;93.81;101660.88;4962639;28;20174;-49
2023/10/05 09:21:50;;;;;;;7.40;2.33;;;;;;;15.97;92.55;101652.19;4952421;28;20197;-49
2023/10/05 09:24:21;;;;;;;13.07;2.10;;;;;;;16.11;92.36;101664.16;4961117;28;20206;-49
2023/10/05 09:26:57;;;;;;;8.02;1.80;;;;;;;16.34;91.23;101657.63;4961595;28;20202;-48
2023/10/05 09:29:32;;;;;;;11.52;1.98;;;;;;;16.30;89.04;101656.03;4961390;28;20236;-48
2023/10/05 09:31:59;;;;;;;11.35;1.70;;;;;;;16.54;88.89;101667.47;4960464;28;20178;-50
2023/10/05 09:34:49;;;;;;;8.65;2.00;;;;;;;16.65;87.58;101667.81;4962905;28;20228;-48
2023/10/05 09:37:16;;;;;;;6.95;1.85;;;;;;;16.48;85.34;101661.38;4961378;28;20174;-50
2023/10/05 09:39:44;;;;;;;6.35;1.60;;;;;;;16.33;83.67;101663.97;4962686;28;20193;-49
2023/10/05 09:42:14;;;;;;;11.75;2.00;;;;;;;16.24;83.73;101668.00;4961117;28;20179;-48
2023/10/05 09:44:50;;;;;;;9.20;1.52;;;;;;;16.33;84.01;101669.41;4963529;28;20185;-48
2023/10/05 09:47:37;;;;;;;7.53;1.63;;;;;;;16.72;82.66;101663.81;4962636;28;20272;-49
2023/10/05 09:50:09;;;;;;;13.13;2.15;;;;;;;16.34;81.32;101666.63;4962329;28;20245;-49
2023/10/05 09:52:37;;;;;;;9.13;1.83;;;;;;;16.10;81.98;101668.69;4961290;28;20332;-49
2023/10/05 09:55:04;;;;;;;8.63;2.00;;;;;;;16.08;82.48;101673.28;4963669;28;20189;-49
2023/10/05 09:57:40;;;;;;;10.32;1.83;;;;;;;16.22;82.39;101678.94;4959874;28;20199;-49
2023/10/05 10:00:08;;;;;;;10.52;2.00;;;;;;;16.11;81.89;101667.72;4962758;28;20196;-48
2023/10/05 10:02:39;;;;;;;8.82;1.65;;;;;;;15.96;81.26;101665.75;4961101;28;20253;-48
2023/10/05 10:05:26;;;;;;;9.95;1.60;;;;;;;15.70;81.83;101669.66;4962135;28;20208;-48
2023/10/05 10:07:57;;;;;;;11.38;1.75;;;;;;;15.99;81.58;101669.19;4958866;28;20238;-48
2023/10/05 10:10:25;;;;;;;12.13;2.22;;;;;;;16.32;80.00;101665.81;4960050;28;20286;-48
2023/10/05 10:12:52;;;;;;;9.65;2.10;;;;;;;16.58;79.66;101658.25;4963109;28;20205;-48
2023/10/05 10:15:31;;;;;;;9.43;1.52;;;;;;;16.63;79.20;101650.78;4961388;28;20186;-48
2023/10/05 10:18:21;;;;;;;10.30;1.75;;;;;;;16.67;79.04;101660.50;4947240;28;20591;-49
2023/10/05 10:20:56;;;;;;;5.30;1.55;;;;;;;16.68;78.57;101664.94;4961822;28;20251;-48
2023/10/05 10:23:25;;;;;;;8.00;1.65;;;;;;;17.07;77.18;101651.22;4961886;28;20210;-49
2023/10/05 10:26:05;;;;;;;7.18;1.95;;;;;;;16.91;76.35;101654.81;4962560;28;20178;-48
2023/10/05 10:31:22;;;;;;;8.07;1.55;;;;;;;17.01;74.65;101647.94;4962381;28;20261;-47
2023/10/05 10:33:51;;;;;;;9.82;1.75;;;;;;;16.87;74.23;101641.41;4963459;28;20217;-48
2023/10/05 10:36:23;;;;;;;8.75;1.63;;;;;;;16.92;73.83;101637.59;4961033;28;20177;-48
2023/10/05 10:38:50;;;;;;;9.43;1.73;;;;;;;16.99;73.96;101647.16;4963220;28;20190;-49
2023/10/05 10:41:17;;;;;;;14.43;1.92;;;;;;;17.11;73.87;101657.34;4962172;28;20190;-48
2023/10/05 10:43:49;;;;;;;6.43;2.40;;;;;;;17.23;73.55;101664.84;4960177;28;20202;-48
2023/10/05 10:46:29;;;;;;;7.88;1.85;;;;;;;16.83;73.59;101661.47;4960217;28;20527;-48
2023/10/05 10:48:59;;;;;;;7.07;1.30;;;;;;;16.97;73.89;101670.75;4964124;28;20285;-49
2023/10/05 10:51:36;;;;;;;4.60;1.30;;;;;;;17.21;73.73;101676.72;4963256;28;20218;-48
2023/10/05 10:54:14;;;;;;;7.53;1.25;;;;;;;17.40;72.88;101668.47;4964703;28;20198;-48
2023/10/05 10:56:42;;;;;;;6.75;1.83;;;;;;;17.15;73.50;101680.59;4967880;28;20273;-48
2023/10/05 10:59:19;;;;;;;8.18;1.30;;;;;;;16.85;72.21;101664.13;4948015;28;20273;-48
2023/10/05 11:01:52;;;;;;;6.38;1.45;;;;;;;17.15;72.31;101671.63;4965769;28;20272;-47
2023/10/05 11:04:25;;;;;;;4.43;1.55;;;;;;;16.82;72.38;101681.38;4965107;28;20199;-46
2023/10/05 11:07:09;;;;;;;5.63;1.83;;;;;;;16.45;73.14;101690.44;4965681;28;20301;-47
2023/10/05 11:09:37;;;;;;;5.90;1.65;;;;;;;16.29;73.46;101687.63;4967799;28;20723;-48
2023/10/05 11:12:11;;;;;;;7.53;1.45;;;;;;;16.23;73.82;101705.00;4965430;28;20205;-48
2023/10/05 11:14:42;;;;;;;6.15;1.42;;;;;;;16.56;73.60;101696.19;4964333;28;20710;-48
2023/10/05 11:17:35;;;;;;;6.82;1.70;;;;;;;16.93;74.04;101707.91;4967475;28;20324;-49
2023/10/05 11:20:13;;;;;;;8.23;1.58;;;;;;;16.81;74.22;101703.97;4968328;28;20181;-48
2023/10/05 11:22:42;;;;;;;7.55;1.52;;;;;;;17.06;73.75;101700.06;4968449;28;20296;-48
2023/10/05 11:25:14;;;;;;;4.28;1.60;;;;;;;16.89;73.33;101690.94;4965356;28;20248;-49
2023/10/05 11:27:42;;;;;;;5.75;1.23;;;;;;;16.64;73.95;101706.66;4965921;28;20717;-48
2023/10/05 11:30:08;;;;;;;5.65;1.42;;;;;;;16.55;73.60;101694.47;4963697;28;20213;-49
2023/10/05 11:32:33;;;;;;;4.35;1.20;;;;;;;16.35;73.24;101703.53;4968177;28;20198;-48
2023/10/05 11:35:05;;;;;;;3.58;1.10;;;;;;;16.30;73.10;101699.31;4964574;28;20200;-48
2023/10/05 11:37:32;;;;;;;5.07;0.80;;;;;;;16.43;71.72;101690.50;4964328;28;20233;-47
2023/10/05 11:40:04;;;;;;;4.57;1.20;;;;;;;16.55;70.91;101693.56;4953055;28;20615;-48
2023/10/05 11:42:37;;;;;;;6.90;1.40;;;;;;;16.70;70.55;101690.09;4966136;28;20206;-48
2023/10/05 11:45:12;;;;;;;5.18;1.25;;;;;;;16.85;69.45;101673.09;4965965;28;20210;-48
2023/10/05 11:47:45;;;;;;;5.13;1.20;;;;;;;16.54;69.35;101670.19;4964101;28;20253;-48
2023/10/05 11:52:55;;;;;;;7.70;1.50;;;;;;;16.77;68.69;101671.72;4963936;28;20668;-48
2023/10/05 11:55:21;;;;;;;8.90;1.52;;;;;;;16.92;69.08;101675.50;4968726;28;20213;-47
2023/10/05 11:57:46;;;;;;;7.40;1.38;;;;;;;16.80;67.97;101658.94;4966834;28;20205;-48